sensor_id;sensor_type;location;lat;lon;timestamp;temperature;humidity
20432;DHT22;10375;49.136;10.366;2024-03-02T05:24:13;5.00;99.90
20432;DHT22;10375;49.136;10.366;2024-03-02T05:26:40;5.10;99.90
20432;DHT22;10375;49.136;10.366;2024-03-02T05:29:08;5.10;99.90
20432;DHT22;10375;49.136;10.366;2024-03-02T05:31:36;5.10;99.90
20432;DHT22;10375;49.136;10.366;2024-03-02T05:34:03;5.00;99.90
20432;DHT22;10375;49.136;10.366;2024-03-02T05:36:30;5.00;99.90
20432;DHT22;10375;49.136;10.366;2024-03-02T05:38:59;5.00;99.90
20432;DHT22;10375;49.136;10.366;2024-03-02T05:41:26;5.00;99.90
20432;DHT22;10375;49.136;10.366;2024-03-02T05:43:53;5.00;99.90
20432;DHT22;10375;49.136;10.366;2024-03-02T05:46:20;5.00;99.90
20432;DHT22;10375;49.136;10.366;2024-03-02T05:48:48;5.10;99.90
20432;DHT22;10375;49.136;10.366;2024-03-02T05:51:16;5.10;99.90
20432;DHT22;10375;49.136;10.366;2024-03-02T05:53:43;5.10;99.90
20432;DHT22;10375;49.136;10.366;2024-03-02T05:56:11;5.10;99.90
20432;DHT22;10375;49.136;10.366;2024-03-02T05:58:40;5.10;99.90
20432;DHT22;10375;49.136;10.366;2024-03-02T06:01:34;5.00;99.90
20432;DHT22;10375;49.136;10.366;2024-03-02T06:04:03;5.00;99.90
20432;DHT22;10375;49.136;10.366;2024-03-02T06:06:30;5.00;99.90
20432;DHT22;10375;49.136;10.366;2024-03-02T06:09:01;5.10;99.90
20432;DHT22;10375;49.136;10.366;2024-03-02T06:11:35;5.10;99.90
20432;DHT22;10375;49.136;10.366;2024-03-02T06:14:08;5.20;99.90
20432;DHT22;10375;49.136;10.366;2024-03-02T06:16:36;5.20;99.90
20432;DHT22;10375;49.136;10.366;2024-03-02T06:19:03;5.20;99.90
20432;DHT22;10375;49.136;10.366;2024-03-02T06:21:30;5.20;99.90
20432;DHT22;10375;49.136;10.366;2024-03-02T06:23:58;5.20;99.90
20432;DHT22;10375;49.136;10.366;2024-03-02T06:26:25;5.20;99.90
20432;DHT22;10375;49.136;10.366;2024-03-02T06:28:52;5.20;99.90
20432;DHT22;10375;49.136;10.366;2024-03-02T06:31:20;5.30;99.90
20432;DHT22;10375;49.136;10.366;2024-03-02T06:33:47;5.30;99.90
20432;DHT22;10375;49.136;10.366;2024-03-02T06:36:15;5.30;99.90
20432;DHT22;10375;49.136;10.366;2024-03-02T06:38:44;5.40;99.90
20432;DHT22;10375;49.136;10.366;2024-03-02T06:41:31;5.40;99.90
20432;DHT22;10375;49.136;10.366;2024-03-02T06:44:02;5.50;99.90
20432;DHT22;10375;49.136;10.366;2024-03-02T06:46:29;5.50;99.90
20432;DHT22;10375;49.136;10.366;2024-03-02T06:48:56;5.50;99.90
20432;DHT22;10375;49.136;10.366;2024-03-02T06:51:24;5.60;99.90
20432;DHT22;10375;49.136;10.366;2024-03-02T06:53:51;5.60;99.90
20432;DHT22;10375;49.136;10.366;2024-03-02T06:56:18;5.70;99.90
20432;DHT22;10375;49.136;10.366;2024-03-02T06:58:47;5.70;99.90
20432;DHT22;10375;49.136;10.366;2024-03-02T07:01:14;5.70;99.90
20432;DHT22;10375;49.136;10.366;2024-03-02T07:03:43;5.80;99.90
20432;DHT22;10375;49.136;10.366;2024-03-02T07:06:11;5.80;99.90
20432;DHT22;10375;49.136;10.366;2024-03-02T07:08:41;5.80;99.90
20432;DHT22;10375;49.136;10.366;2024-03-02T07:11:08;5.80;99.90
20432;DHT22;10375;49.136;10.366;2024-03-02T07:13:35;5.80;99.90
20432;DHT22;10375;49.136;10.366;2024-03-02T07:16:03;5.90;99.90
20432;DHT22;10375;49.136;10.366;2024-03-02T07:18:31;5.90;99.90
20432;DHT22;10375;49.136;10.366;2024-03-02T07:20:59;5.90;99.90
20432;DHT22;10375;49.136;10.366;2024-03-02T07:23:28;6.00;99.90
20432;DHT22;10375;49.136;10.366;2024-03-02T07:25:55;6.10;99.90
20432;DHT22;10375;49.136;10.366;2024-03-02T07:28:26;6.10;99.90
20432;DHT22;10375;49.136;10.366;2024-03-02T07:31:02;6.20;99.90
20432;DHT22;10375;49.136;10.366;2024-03-02T07:33:30;6.20;99.90
20432;DHT22;10375;49.136;10.366;2024-03-02T07:35:59;6.30;99.90
20432;DHT22;10375;49.136;10.366;2024-03-02T07:38:31;6.30;99.90
20432;DHT22;10375;49.136;10.366;2024-03-02T07:41:01;6.40;99.90
20432;DHT22;10375;49.136;10.366;2024-03-02T07:43:28;6.40;99.90
20432;DHT22;10375;49.136;10.366;2024-03-02T07:45:56;6.50;99.90
20432;DHT22;10375;49.136;10.366;2024-03-02T07:48:24;6.60;99.90
20432;DHT22;10375;49.136;10.366;2024-03-02T07:50:52;6.60;99.90
20432;DHT22;10375;49.136;10.366;2024-03-02T07:53:19;6.60;99.90
20432;DHT22;10375;49.136;10.366;2024-03-02T07:55:46;6.60;99.90
20432;DHT22;10375;49.136;10.366;2024-03-02T07:58:13;6.70;99.90
20432;DHT22;10375;49.136;10.366;2024-03-02T08:00:41;6.80;99.90
20432;DHT22;10375;49.136;10.366;2024-03-02T08:03:08;7.00;99.90
20432;DHT22;10375;49.136;10.366;2024-03-02T08:05:38;7.10;99.90
20432;DHT22;10375;49.136;10.366;2024-03-02T08:08:07;7.20;99.90
20432;DHT22;10375;49.136;10.366;2024-03-02T08:10:34;7.80;99.90
20432;DHT22;10375;49.136;10.366;2024-03-02T08:13:01;8.40;99.90
20432;DHT22;10375;49.136;10.366;2024-03-02T08:15:28;8.90;99.90
20432;DHT22;10375;49.136;10.366;2024-03-02T08:17:56;9.10;99.90
20432;DHT22;10375;49.136;10.366;2024-03-02T08:20:23;9.30;99.90
20432;DHT22;10375;49.136;10.366;2024-03-02T08:22:51;9.50;99.90
20432;DHT22;10375;49.136;10.366;2024-03-02T08:25:21;9.60;99.90
20432;DHT22;10375;49.136;10.366;2024-03-02T08:27:49;9.30;99.90
20432;DHT22;10375;49.136;10.366;2024-03-02T08:30:17;9.20;99.90
20432;DHT22;10375;49.136;10.366;2024-03-02T08:32:45;9.30;99.90
20432;DHT22;10375;49.136;10.366;2024-03-02T08:35:14;9.50;99.90
20432;DHT22;10375;49.136;10.366;2024-03-02T08:37:44;9.60;99.90
20432;DHT22;10375;49.136;10.366;2024-03-02T08:40:12;9.80;99.90
20432;DHT22;10375;49.136;10.366;2024-03-02T08:42:43;9.90;99.90
20432;DHT22;10375;49.136;10.366;2024-03-02T08:45:10;10.20;99.90
20432;DHT22;10375;49.136;10.366;2024-03-02T08:47:38;10.30;99.90
20432;DHT22;10375;49.136;10.366;2024-03-02T08:50:06;10.60;99.90
20432;DHT22;10375;49.136;10.366;2024-03-02T08:52:33;10.60;99.90
20432;DHT22;10375;49.136;10.366;2024-03-02T08:55:03;10.50;99.90
20432;DHT22;10375;49.136;10.366;2024-03-02T08:57:33;10.70;99.90
20432;DHT22;10375;49.136;10.366;2024-03-02T09:00:00;10.80;99.90
20432;DHT22;10375;49.136;10.366;2024-03-02T09:02:28;10.90;99.90
20432;DHT22;10375;49.136;10.366;2024-03-02T09:04:55;10.90;99.90
20432;DHT22;10375;49.136;10.366;2024-03-02T09:07:22;10.60;99.90
20432;DHT22;10375;49.136;10.366;2024-03-02T09:09:50;10.60;99.90
20432;DHT22;10375;49.136;10.366;2024-03-02T09:12:19;10.50;99.90
20432;DHT22;10375;49.136;10.366;2024-03-02T09:14:48;10.30;99.90
20432;DHT22;10375;49.136;10.366;2024-03-02T09:17:15;10.50;99.90
20432;DHT22;10375;49.136;10.366;2024-03-02T09:19:42;10.60;99.90
20432;DHT22;10375;49.136;10.366;2024-03-02T09:22:09;10.70;99.90
20432;DHT22;10375;49.136;10.366;2024-03-02T09:24:53;10.90;99.90
20432;DHT22;10375;49.136;10.366;2024-03-02T09:27:22;10.90;99.90
20432;DHT22;10375;49.136;10.366;2024-03-02T09:29:53;11.10;99.90
20432;DHT22;10375;49.136;10.366;2024-03-02T09:32:20;11.20;99.90
20432;DHT22;10375;49.136;10.366;2024-03-02T09:34:53;11.10;99.90
20432;DHT22;10375;49.136;10.366;2024-03-02T09:37:22;11.10;99.90
20432;DHT22;10375;49.136;10.366;2024-03-02T09:39:53;11.20;99.90
20432;DHT22;10375;49.136;10.366;2024-03-02T09:42:21;11.40;99.90
20432;DHT22;10375;49.136;10.366;2024-03-02T09:44:50;11.60;99.90
20432;DHT22;10375;49.136;10.366;2024-03-02T09:47:17;11.80;99.90
20432;DHT22;10375;49.136;10.366;2024-03-02T09:49:45;11.90;99.90
20432;DHT22;10375;49.136;10.366;2024-03-02T09:52:13;12.10;99.90
20432;DHT22;10375;49.136;10.366;2024-03-02T09:54:41;11.80;99.90
20432;DHT22;10375;49.136;10.366;2024-03-02T09:57:12;11.40;99.90
20432;DHT22;10375;49.136;10.366;2024-03-02T09:59:40;11.50;99.90
20432;DHT22;10375;49.136;10.366;2024-03-02T10:02:07;11.70;99.90
20432;DHT22;10375;49.136;10.366;2024-03-02T10:04:34;11.90;99.90
20432;DHT22;10375;49.136;10.366;2024-03-02T10:07:15;12.00;99.90
20432;DHT22;10375;49.136;10.366;2024-03-02T10:09:43;12.20;99.90
20432;DHT22;10375;49.136;10.366;2024-03-02T10:12:16;12.50;99.90
20432;DHT22;10375;49.136;10.366;2024-03-02T10:14:44;12.40;99.90
20432;DHT22;10375;49.136;10.366;2024-03-02T10:17:17;12.20;99.90
20432;DHT22;10375;49.136;10.366;2024-03-02T10:19:44;12.10;99.90
20432;DHT22;10375;49.136;10.366;2024-03-02T10:22:14;12.00;99.90
20432;DHT22;10375;49.136;10.366;2024-03-02T10:24:48;11.90;99.90
20432;DHT22;10375;49.136;10.366;2024-03-02T10:27:27;12.10;99.90
20432;DHT22;10375;49.136;10.366;2024-03-02T10:29:58;12.20;99.90
20432;DHT22;10375;49.136;10.366;2024-03-02T10:32:31;12.30;99.90
20432;DHT22;10375;49.136;10.366;2024-03-02T10:35:00;12.50;99.90
20432;DHT22;10375;49.136;10.366;2024-03-02T10:37:27;12.90;99.90
20432;DHT22;10375;49.136;10.366;2024-03-02T10:39:55;13.10;99.90
20432;DHT22;10375;49.136;10.366;2024-03-02T10:42:22;13.30;99.90
20432;DHT22;10375;49.136;10.366;2024-03-02T10:44:50;13.40;99.90
20432;DHT22;10375;49.136;10.366;2024-03-02T10:47:20;13.50;99.90
20432;DHT22;10375;49.136;10.366;2024-03-02T10:49:51;13.30;99.90
20432;DHT22;10375;49.136;10.366;2024-03-02T10:52:20;13.10;99.90
20432;DHT22;10375;49.136;10.366;2024-03-02T10:54:50;13.20;99.90
20432;DHT22;10375;49.136;10.366;2024-03-02T10:57:21;13.40;99.90
20432;DHT22;10375;49.136;10.366;2024-03-02T10:59:56;13.60;99.90
20432;DHT22;10375;49.136;10.366;2024-03-02T11:02:25;13.70;99.90
20432;DHT22;10375;49.136;10.366;2024-03-02T11:04:55;14.00;99.90
20432;DHT22;10375;49.136;10.366;2024-03-02T11:07:23;13.90;99.90
20432;DHT22;10375;49.136;10.366;2024-03-02T11:09:59;13.90;99.90
20432;DHT22;10375;49.136;10.366;2024-03-02T11:12:33;13.90;99.90
20432;DHT22;10375;49.136;10.366;2024-03-02T11:15:10;14.00;99.90
20432;DHT22;10375;49.136;10.366;2024-03-02T11:17:41;13.80;99.90
20432;DHT22;10375;49.136;10.366;2024-03-02T11:20:09;13.70;99.90
20432;DHT22;10375;49.136;10.366;2024-03-02T11:22:37;13.60;99.90
20432;DHT22;10375;49.136;10.366;2024-03-02T11:25:05;13.60;99.90
20432;DHT22;10375;49.136;10.366;2024-03-02T11:35:28;14.40;99.90
20432;DHT22;10375;49.136;10.366;2024-03-02T11:37:55;14.70;99.90
20432;DHT22;10375;49.136;10.366;2024-03-02T11:40:25;14.70;99.90
20432;DHT22;10375;49.136;10.366;2024-03-02T11:42:53;14.50;99.90
20432;DHT22;10375;49.136;10.366;2024-03-02T11:45:24;14.20;99.90
20432;DHT22;10375;49.136;10.366;2024-03-02T11:48:00;14.40;99.90
20432;DHT22;10375;49.136;10.366;2024-03-02T11:50:34;14.20;99.90
20432;DHT22;10375;49.136;10.366;2024-03-02T11:53:09;14.50;99.90
20432;DHT22;10375;49.136;10.366;2024-03-02T11:55:42;14.60;99.90
20432;DHT22;10375;49.136;10.366;2024-03-02T11:58:16;14.70;99.90
20432;DHT22;10375;49.136;10.366;2024-03-02T12:00:52;14.60;99.90
20432;DHT22;10375;49.136;10.366;2024-03-02T12:03:24;14.50;99.90
20432;DHT22;10375;49.136;10.366;2024-03-02T12:05:54;14.40;99.90
20432;DHT22;10375;49.136;10.366;2024-03-02T12:08:26;14.60;99.90
20432;DHT22;10375;49.136;10.366;2024-03-02T12:11:02;14.70;99.90
20432;DHT22;10375;49.136;10.366;2024-03-02T12:13:41;14.70;99.90
20432;DHT22;10375;49.136;10.366;2024-03-02T12:16:09;14.80;99.90
20432;DHT22;10375;49.136;10.366;2024-03-02T12:18:48;14.60;99.90
20432;DHT22;10375;49.136;10.366;2024-03-02T12:21:16;14.40;99.90
20432;DHT22;10375;49.136;10.366;2024-03-02T12:23:44;14.20;99.90
20432;DHT22;10375;49.136;10.366;2024-03-02T12:26:15;14.00;99.90
20432;DHT22;10375;49.136;10.366;2024-03-02T12:28:43;14.10;99.90
20432;DHT22;10375;49.136;10.366;2024-03-02T12:31:23;14.30;99.90
20432;DHT22;10375;49.136;10.366;2024-03-02T12:33:51;14.40;99.90
20432;DHT22;10375;49.136;10.366;2024-03-02T12:36:19;14.30;99.90
20432;DHT22;10375;49.136;10.366;2024-03-02T12:38:57;14.30;99.90
20432;DHT22;10375;49.136;10.366;2024-03-02T12:41:24;14.30;99.90
20432;DHT22;10375;49.136;10.366;2024-03-02T12:43:54;14.30;99.90
20432;DHT22;10375;49.136;10.366;2024-03-02T12:46:21;14.50;99.90
20432;DHT22;10375;49.136;10.366;2024-03-02T12:48:49;14.50;99.90
20432;DHT22;10375;49.136;10.366;2024-03-02T12:51:26;14.60;99.90
20432;DHT22;10375;49.136;10.366;2024-03-02T12:54:10;14.50;99.90
20432;DHT22;10375;49.136;10.366;2024-03-02T12:56:41;14.40;99.90
20432;DHT22;10375;49.136;10.366;2024-03-02T12:59:20;14.60;99.90
20432;DHT22;10375;49.136;10.366;2024-03-02T13:01:54;14.80;99.90
20432;DHT22;10375;49.136;10.366;2024-03-02T13:04:36;14.70;99.90
20432;DHT22;10375;49.136;10.366;2024-03-02T13:07:06;14.30;99.90
20432;DHT22;10375;49.136;10.366;2024-03-02T13:09:37;13.80;99.90
20432;DHT22;10375;49.136;10.366;2024-03-02T13:12:05;13.80;99.90
20432;DHT22;10375;49.136;10.366;2024-03-02T13:14:42;13.80;99.90
20432;DHT22;10375;49.136;10.366;2024-03-02T13:17:09;13.60;99.90
20432;DHT22;10375;49.136;10.366;2024-03-02T13:19:36;13.50;99.90
20432;DHT22;10375;49.136;10.366;2024-03-02T13:22:04;13.50;99.90
20432;DHT22;10375;49.136;10.366;2024-03-02T13:24:31;13.50;99.90
20432;DHT22;10375;49.136;10.366;2024-03-02T13:27:00;13.60;99.90
20432;DHT22;10375;49.136;10.366;2024-03-02T13:29:27;13.90;99.90
20432;DHT22;10375;49.136;10.366;2024-03-02T13:31:55;14.20;99.90
20432;DHT22;10375;49.136;10.366;2024-03-02T13:34:22;14.40;99.90
20432;DHT22;10375;49.136;10.366;2024-03-02T13:36:49;14.40;99.90
20432;DHT22;10375;49.136;10.366;2024-03-02T13:39:16;14.30;99.90
20432;DHT22;10375;49.136;10.366;2024-03-02T13:41:44;14.30;99.90
20432;DHT22;10375;49.136;10.366;2024-03-02T13:44:19;14.30;99.90
20432;DHT22;10375;49.136;10.366;2024-03-02T13:46:47;14.60;99.90
20432;DHT22;10375;49.136;10.366;2024-03-02T13:49:15;14.60;99.90
20432;DHT22;10375;49.136;10.366;2024-03-02T13:51:42;14.60;99.90
20432;DHT22;10375;49.136;10.366;2024-03-02T13:54:10;14.70;99.90
20432;DHT22;10375;49.136;10.366;2024-03-02T13:56:37;14.60;99.90
20432;DHT22;10375;49.136;10.366;2024-03-02T13:59:06;14.60;99.90
20432;DHT22;10375;49.136;10.366;2024-03-02T14:01:33;14.60;99.90
20432;DHT22;10375;49.136;10.366;2024-03-02T14:04:00;14.50;99.90
20432;DHT22;10375;49.136;10.366;2024-03-02T14:06:29;14.30;99.90
20432;DHT22;10375;49.136;10.366;2024-03-02T14:08:56;14.30;99.90
20432;DHT22;10375;49.136;10.366;2024-03-02T14:11:26;14.20;99.90
20432;DHT22;10375;49.136;10.366;2024-03-02T14:13:54;14.00;99.90
20432;DHT22;10375;49.136;10.366;2024-03-02T14:16:21;14.10;99.90
20432;DHT22;10375;49.136;10.366;2024-03-02T14:18:48;14.10;99.90
20432;DHT22;10375;49.136;10.366;2024-03-02T14:21:16;14.00;99.90
20432;DHT22;10375;49.136;10.366;2024-03-02T14:23:43;14.10;99.90
20432;DHT22;10375;49.136;10.366;2024-03-02T14:26:11;14.00;99.90
20432;DHT22;10375;49.136;10.366;2024-03-02T14:28:38;14.10;99.90
20432;DHT22;10375;49.136;10.366;2024-03-02T14:31:17;14.10;99.90
20432;DHT22;10375;49.136;10.366;2024-03-02T14:33:44;14.10;99.90
20432;DHT22;10375;49.136;10.366;2024-03-02T14:36:13;13.90;99.90
20432;DHT22;10375;49.136;10.366;2024-03-02T14:38:40;14.10;99.90
20432;DHT22;10375;49.136;10.366;2024-03-02T14:41:07;14.10;99.90
20432;DHT22;10375;49.136;10.366;2024-03-02T14:43:34;14.00;99.90
20432;DHT22;10375;49.136;10.366;2024-03-02T14:46:02;14.00;99.90
20432;DHT22;10375;49.136;10.366;2024-03-02T14:48:31;13.90;99.90
20432;DHT22;10375;49.136;10.366;2024-03-02T14:50:58;13.70;99.90
20432;DHT22;10375;49.136;10.366;2024-03-02T14:53:25;13.60;99.90
20432;DHT22;10375;49.136;10.366;2024-03-02T14:55:52;13.50;99.90
20432;DHT22;10375;49.136;10.366;2024-03-02T14:58:20;13.60;99.90
20432;DHT22;10375;49.136;10.366;2024-03-02T15:00:47;13.40;99.90
20432;DHT22;10375;49.136;10.366;2024-03-02T15:03:14;13.30;99.90
20432;DHT22;10375;49.136;10.366;2024-03-02T15:05:41;13.20;99.90
20432;DHT22;10375;49.136;10.366;2024-03-02T15:08:09;13.00;99.90
20432;DHT22;10375;49.136;10.366;2024-03-02T15:10:36;13.00;99.90
20432;DHT22;10375;49.136;10.366;2024-03-02T15:13:04;13.10;99.90
20432;DHT22;10375;49.136;10.366;2024-03-02T15:15:31;13.10;99.90
20432;DHT22;10375;49.136;10.366;2024-03-02T15:17:59;13.10;99.90
20432;DHT22;10375;49.136;10.366;2024-03-02T15:20:28;12.90;99.90
20432;DHT22;10375;49.136;10.366;2024-03-02T15:22:55;12.90;99.90
20432;DHT22;10375;49.136;10.366;2024-03-02T15:25:22;12.80;99.90
20432;DHT22;10375;49.136;10.366;2024-03-02T15:27:49;12.70;99.90
20432;DHT22;10375;49.136;10.366;2024-03-02T15:30:17;12.70;99.90
20432;DHT22;10375;49.136;10.366;2024-03-02T15:32:44;12.60;99.90
20432;DHT22;10375;49.136;10.366;2024-03-02T15:35:11;12.50;99.90
20432;DHT22;10375;49.136;10.366;2024-03-02T15:37:45;12.50;99.90
20432;DHT22;10375;49.136;10.366;2024-03-02T15:40:12;12.50;99.90
20432;DHT22;10375;49.136;10.366;2024-03-02T15:42:40;12.40;99.90
20432;DHT22;10375;49.136;10.366;2024-03-02T15:45:18;12.30;99.90
20432;DHT22;10375;49.136;10.366;2024-03-02T15:47:45;12.30;99.90
20432;DHT22;10375;49.136;10.366;2024-03-02T15:50:14;12.30;99.90
20432;DHT22;10375;49.136;10.366;2024-03-02T15:52:42;12.30;99.90
20432;DHT22;10375;49.136;10.366;2024-03-02T15:55:09;12.00;99.90
20432;DHT22;10375;49.136;10.366;2024-03-02T15:57:40;12.00;99.90
20432;DHT22;10375;49.136;10.366;2024-03-02T16:00:09;11.90;99.90
20432;DHT22;10375;49.136;10.366;2024-03-02T16:02:36;11.80;99.90
20432;DHT22;10375;49.136;10.366;2024-03-02T16:05:05;11.70;99.90
20432;DHT22;10375;49.136;10.366;2024-03-02T16:07:32;11.70;99.90
20432;DHT22;10375;49.136;10.366;2024-03-02T16:10:04;11.70;99.90
20432;DHT22;10375;49.136;10.366;2024-03-02T16:12:34;11.60;99.90
20432;DHT22;10375;49.136;10.366;2024-03-02T16:15:04;11.50;99.90
20432;DHT22;10375;49.136;10.366;2024-03-02T16:17:32;11.50;99.90
20432;DHT22;10375;49.136;10.366;2024-03-02T16:19:59;11.60;99.90
20432;DHT22;10375;49.136;10.366;2024-03-02T16:22:26;11.60;99.90
20432;DHT22;10375;49.136;10.366;2024-03-02T16:24:53;11.60;99.90
20432;DHT22;10375;49.136;10.366;2024-03-02T16:27:22;11.40;99.90
20432;DHT22;10375;49.136;10.366;2024-03-02T16:29:49;11.30;99.90
20432;DHT22;10375;49.136;10.366;2024-03-02T16:32:16;11.20;99.90
20432;DHT22;10375;49.136;10.366;2024-03-02T16:34:44;11.00;99.90
20432;DHT22;10375;49.136;10.366;2024-03-02T16:37:13;11.00;99.90
20432;DHT22;10375;49.136;10.366;2024-03-02T16:39:40;10.90;99.90
20432;DHT22;10375;49.136;10.366;2024-03-02T16:42:08;10.80;99.90
20432;DHT22;10375;49.136;10.366;2024-03-02T16:44:41;10.70;99.90
20432;DHT22;10375;49.136;10.366;2024-03-02T16:47:08;10.60;99.90
20432;DHT22;10375;49.136;10.366;2024-03-02T16:49:37;10.50;99.90
20432;DHT22;10375;49.136;10.366;2024-03-02T16:52:04;10.40;99.90
20432;DHT22;10375;49.136;10.366;2024-03-02T16:54:32;10.30;99.90
20432;DHT22;10375;49.136;10.366;2024-03-02T16:56:59;10.20;99.90
20432;DHT22;10375;49.136;10.366;2024-03-02T16:59:26;10.20;99.90
20432;DHT22;10375;49.136;10.366;2024-03-02T17:01:54;10.20;99.90
20432;DHT22;10375;49.136;10.366;2024-03-02T17:04:21;10.10;99.90
20432;DHT22;10375;49.136;10.366;2024-03-02T17:06:50;10.00;99.90
20432;DHT22;10375;49.136;10.366;2024-03-02T17:09:18;9.90;99.90
20432;DHT22;10375;49.136;10.366;2024-03-02T17:11:45;9.80;99.90
20432;DHT22;10375;49.136;10.366;2024-03-02T17:14:12;9.70;99.90
20432;DHT22;10375;49.136;10.366;2024-03-02T17:16:40;9.60;99.90
20432;DHT22;10375;49.136;10.366;2024-03-02T17:19:07;9.60;99.90
20432;DHT22;10375;49.136;10.366;2024-03-02T17:21:35;9.50;99.90
20432;DHT22;10375;49.136;10.366;2024-03-02T17:24:02;9.50;99.90
20432;DHT22;10375;49.136;10.366;2024-03-02T17:26:30;9.40;99.90
20432;DHT22;10375;49.136;10.366;2024-03-02T17:28:57;9.40;99.90
20432;DHT22;10375;49.136;10.366;2024-03-02T17:31:25;9.30;99.90
20432;DHT22;10375;49.136;10.366;2024-03-02T17:33:53;9.20;99.90
20432;DHT22;10375;49.136;10.366;2024-03-02T17:36:20;9.20;99.90
20432;DHT22;10375;49.136;10.366;2024-03-02T17:38:48;9.20;99.90
20432;DHT22;10375;49.136;10.366;2024-03-02T17:41:15;9.10;99.90
20432;DHT22;10375;49.136;10.366;2024-03-02T17:43:42;9.10;99.90
20432;DHT22;10375;49.136;10.366;2024-03-02T17:46:10;9.00;99.90
20432;DHT22;10375;49.136;10.366;2024-03-02T17:48:38;8.90;99.90
20432;DHT22;10375;49.136;10.366;2024-03-02T17:51:08;8.90;99.90
20432;DHT22;10375;49.136;10.366;2024-03-02T17:53:35;8.80;99.90
20432;DHT22;10375;49.136;10.366;2024-03-02T17:56:03;8.80;99.90
20432;DHT22;10375;49.136;10.366;2024-03-02T17:58:30;8.70;99.90
20432;DHT22;10375;49.136;10.366;2024-03-02T18:00:59;8.70;99.90
20432;DHT22;10375;49.136;10.366;2024-03-02T18:03:26;8.70;99.90
20432;DHT22;10375;49.136;10.366;2024-03-02T18:05:54;8.60;99.90
20432;DHT22;10375;49.136;10.366;2024-03-02T18:08:21;8.50;99.90
20432;DHT22;10375;49.136;10.366;2024-03-02T18:10:48;8.50;99.90
20432;DHT22;10375;49.136;10.366;2024-03-02T18:13:15;8.40;99.90
20432;DHT22;10375;49.136;10.366;2024-03-02T18:15:43;8.40;99.90
20432;DHT22;10375;49.136;10.366;2024-03-02T18:18:12;8.40;99.90
20432;DHT22;10375;49.136;10.366;2024-03-02T18:20:40;8.40;99.90
20432;DHT22;10375;49.136;10.366;2024-03-02T18:23:07;8.30;99.90
20432;DHT22;10375;49.136;10.366;2024-03-02T18:25:35;8.30;99.90
20432;DHT22;10375;49.136;10.366;2024-03-02T18:28:02;8.20;99.90
20432;DHT22;10375;49.136;10.366;2024-03-02T18:30:30;8.10;99.90
20432;DHT22;10375;49.136;10.366;2024-03-02T18:32:58;8.10;99.90
20432;DHT22;10375;49.136;10.366;2024-03-02T18:35:25;8.00;99.90
20432;DHT22;10375;49.136;10.366;2024-03-02T18:37:53;8.00;99.90
20432;DHT22;10375;49.136;10.366;2024-03-02T18:40:20;8.00;99.90
20432;DHT22;10375;49.136;10.366;2024-03-02T18:42:47;8.00;99.90
20432;DHT22;10375;49.136;10.366;2024-03-02T18:45:15;8.00;99.90
20432;DHT22;10375;49.136;10.366;2024-03-02T18:47:44;7.90;99.90
20432;DHT22;10375;49.136;10.366;2024-03-02T18:50:11;7.90;99.90
20432;DHT22;10375;49.136;10.366;2024-03-02T18:52:39;7.80;99.90
20432;DHT22;10375;49.136;10.366;2024-03-02T18:55:06;7.80;99.90
20432;DHT22;10375;49.136;10.366;2024-03-02T18:57:34;7.80;99.90
20432;DHT22;10375;49.136;10.366;2024-03-02T19:00:02;7.80;99.90
20432;DHT22;10375;49.136;10.366;2024-03-02T19:02:32;7.80;99.90
20432;DHT22;10375;49.136;10.366;2024-03-02T19:04:59;7.80;99.90
20432;DHT22;10375;49.136;10.366;2024-03-02T19:07:27;7.80;99.90
20432;DHT22;10375;49.136;10.366;2024-03-02T19:09:54;7.70;99.90
20432;DHT22;10375;49.136;10.366;2024-03-02T19:12:23;7.70;99.90
20432;DHT22;10375;49.136;10.366;2024-03-02T19:14:51;7.60;99.90
20432;DHT22;10375;49.136;10.366;2024-03-02T19:17:18;7.60;99.90
20432;DHT22;10375;49.136;10.366;2024-03-02T19:19:46;7.50;99.90
20432;DHT22;10375;49.136;10.366;2024-03-02T19:22:14;7.50;99.90
20432;DHT22;10375;49.136;10.366;2024-03-02T19:24:42;7.50;99.90
20432;DHT22;10375;49.136;10.366;2024-03-02T19:27:09;7.40;99.90
20432;DHT22;10375;49.136;10.366;2024-03-02T19:29:36;7.30;99.90
20432;DHT22;10375;49.136;10.366;2024-03-02T19:32:03;7.30;99.90
20432;DHT22;10375;49.136;10.366;2024-03-02T19:34:37;7.30;99.90
20432;DHT22;10375;49.136;10.366;2024-03-02T19:37:05;7.20;99.90
20432;DHT22;10375;49.136;10.366;2024-03-02T19:39:32;7.20;99.90
20432;DHT22;10375;49.136;10.366;2024-03-02T19:42:03;7.10;99.90
20432;DHT22;10375;49.136;10.366;2024-03-02T19:44:31;7.10;99.90
20432;DHT22;10375;49.136;10.366;2024-03-02T19:46:59;7.00;99.90
20432;DHT22;10375;49.136;10.366;2024-03-02T19:49:27;6.90;99.90
20432;DHT22;10375;49.136;10.366;2024-03-02T19:51:54;6.90;99.90
20432;DHT22;10375;49.136;10.366;2024-03-02T19:54:21;6.90;99.90
20432;DHT22;10375;49.136;10.366;2024-03-02T19:56:49;6.80;99.90
20432;DHT22;10375;49.136;10.366;2024-03-02T19:59:16;6.80;99.90
20432;DHT22;10375;49.136;10.366;2024-03-02T20:01:43;6.70;99.90
20432;DHT22;10375;49.136;10.366;2024-03-02T20:04:11;6.70;99.90
20432;DHT22;10375;49.136;10.366;2024-03-02T20:06:38;6.60;99.90
20432;DHT22;10375;49.136;10.366;2024-03-02T20:09:05;6.60;99.90
20432;DHT22;10375;49.136;10.366;2024-03-02T20:11:33;6.70;99.90
20432;DHT22;10375;49.136;10.366;2024-03-02T20:14:01;6.70;99.90
20432;DHT22;10375;49.136;10.366;2024-03-02T20:16:28;6.70;99.90
20432;DHT22;10375;49.136;10.366;2024-03-02T20:18:56;6.70;99.90
20432;DHT22;10375;49.136;10.366;2024-03-02T20:21:23;6.80;99.90
20432;DHT22;10375;49.136;10.366;2024-03-02T20:23:51;6.80;99.90
20432;DHT22;10375;49.136;10.366;2024-03-02T20:26:19;6.80;99.90
20432;DHT22;10375;49.136;10.366;2024-03-02T20:28:48;6.80;99.90
20432;DHT22;10375;49.136;10.366;2024-03-02T20:31:22;6.80;99.90
20432;DHT22;10375;49.136;10.366;2024-03-02T20:33:49;6.70;99.90
20432;DHT22;10375;49.136;10.366;2024-03-02T20:36:16;6.70;99.90
20432;DHT22;10375;49.136;10.366;2024-03-02T20:38:44;6.70;99.90
20432;DHT22;10375;49.136;10.366;2024-03-02T20:41:18;6.60;99.90
20432;DHT22;10375;49.136;10.366;2024-03-02T20:43:46;6.60;99.90
20432;DHT22;10375;49.136;10.366;2024-03-02T20:46:13;6.60;99.90
20432;DHT22;10375;49.136;10.366;2024-03-02T20:48:42;6.50;99.90
20432;DHT22;10375;49.136;10.366;2024-03-02T20:51:09;6.50;99.90
20432;DHT22;10375;49.136;10.366;2024-03-02T20:53:36;6.50;99.90
20432;DHT22;10375;49.136;10.366;2024-03-02T20:56:04;6.60;99.90
20432;DHT22;10375;49.136;10.366;2024-03-02T20:58:31;6.60;99.90
20432;DHT22;10375;49.136;10.366;2024-03-02T21:00:58;6.60;99.90
20432;DHT22;10375;49.136;10.366;2024-03-02T21:03:26;6.70;99.90